CheckWX is a tool to help pilots better visualize weather data.  It is not intended as a substitute for an official pre-flight weather briefing.

06:45:57 UTC

LFCR TAF
Rodez-Marcillac Airport
Rodez/Marcillac, France
TAF AMD LFCR 160603Z 1606/1706 VRB02KT CAVOK TEMPO 1606/1607 0800 BCFG VV/// BECMG 1608/1610 32005KT BECMG 1621/1623 VRB02KT PROB30 1702/1705 3000 BR

Jun-16@
06:00 UTC

Jun-16 @ 06:00 UTC

Jun-16@
08:00 UTC

Jun-16 @ 08:00 UTC

TAF AMD LFCR 160603Z 1606/1706 VRB02KT CAVOK
Wind
  • Variable at 2 KTS
Conditions
No significant weather
Cloud Levels
  • No significant clouds

Jun-16@
06:00 UTC

Jun-16 @ 06:00 UTC

Jun-16@
07:00 UTC

Jun-16 @ 07:00 UTC

TEMPO 1606/1607 0800 BCFG VV///

Temporary

Temporary Changes expected for less than half the time period

Conditions
Patches of Fog

Jun-16@
08:00 UTC

Jun-16 @ 08:00 UTC

Jun-16@
21:00 UTC

Jun-16 @ 21:00 UTC

BECMG 1608/1610 32005KT

Becoming

Becoming Conditions expected by Sun, Jun 16, 2019 @ 10:00 UTC

Wind
  • 320° at 5 KTS
Conditions
No significant weather
Cloud Levels
  • No significant clouds

Jun-16@
21:00 UTC

Jun-16 @ 21:00 UTC

Jun-17@
06:00 UTC

Jun-17 @ 06:00 UTC

BECMG 1621/1623 VRB02KT

Becoming

Becoming Conditions expected by Sun, Jun 16, 2019 @ 23:00 UTC

Wind
  • Variable at 2 KTS
Conditions
No significant weather
Cloud Levels
  • No significant clouds

Jun-17@
02:00 UTC

Jun-17 @ 02:00 UTC

Jun-17@
05:00 UTC

Jun-17 @ 05:00 UTC

PROB30 1702/1705 3000 BR

Probable - 30% Likelihood

Probable - 30% Likelihood during this time.

Conditions
Mist